Portsmouth, Rhode Island
Current Conditions -  °F | °C
As of 6:53 AM on Thursday 29 Jan 2015 (Local Time) from KUUU Reporting Station
Clear Clear  
Wind Chill:   Ceiling: Unl
Heat Index: 13°   Visibility: 10mi
Dew Point: -2°   Wind: 8mph
Humidity: 51%   Direction: 360°N
Pressure: 30.28"   Gusts: NA
Location:  41.6°N, 71.25°W
Report Text: KUUU 291153Z AUTO 36007KT 10SM CLR M11/M19 A3028 RMK AO2 SLP256 T11061189 11078 21111 51007
Loading
Personal Weather Stations






























Interactive Weather Map New forecast layout! Learn more

10-Day Weather Forecast

Advertisements
Track Severe Weather on mobile